sensor_id;sensor_type;location;lat;lon;timestamp;P1;durP1;ratioP1;P2;durP2;ratioP2
12059;SDS011;6091;51.432;6.880;2023-02-28T00:01:30;0.50;;;0.50;;
12059;SDS011;6091;51.432;6.880;2023-02-28T00:03:58;0.52;;;0.52;;
12059;SDS011;6091;51.432;6.880;2023-02-28T00:06:25;0.50;;;0.50;;
12059;SDS011;6091;51.432;6.880;2023-02-28T00:08:53;0.65;;;0.65;;
12059;SDS011;6091;51.432;6.880;2023-02-28T00:11:20;0.70;;;0.70;;
12059;SDS011;6091;51.432;6.880;2023-02-28T00:13:48;0.50;;;0.50;;
12059;SDS011;6091;51.432;6.880;2023-02-28T00:16:16;0.60;;;0.60;;
12059;SDS011;6091;51.432;6.880;2023-02-28T00:18:46;0.60;;;0.60;;
12059;SDS011;6091;51.432;6.880;2023-02-28T00:21:14;0.50;;;0.50;;
12059;SDS011;6091;51.432;6.880;2023-02-28T00:23:43;0.85;;;0.75;;
12059;SDS011;6091;51.432;6.880;2023-02-28T00:26:10;0.60;;;0.60;;
12059;SDS011;6091;51.432;6.880;2023-02-28T00:28:38;0.60;;;0.60;;
12059;SDS011;6091;51.432;6.880;2023-02-28T00:31:04;0.45;;;0.45;;
12059;SDS011;6091;51.432;6.880;2023-02-28T00:33:32;0.60;;;0.60;;
12059;SDS011;6091;51.432;6.880;2023-02-28T00:36:07;0.50;;;0.50;;
12059;SDS011;6091;51.432;6.880;2023-02-28T00:38:37;0.57;;;0.55;;
12059;SDS011;6091;51.432;6.880;2023-02-28T00:41:07;0.45;;;0.45;;
12059;SDS011;6091;51.432;6.880;2023-02-28T00:43:35;0.50;;;0.50;;
12059;SDS011;6091;51.432;6.880;2023-02-28T00:46:05;0.50;;;0.50;;
12059;SDS011;6091;51.432;6.880;2023-02-28T00:48:33;0.75;;;0.60;;
12059;SDS011;6091;51.432;6.880;2023-02-28T00:51:01;0.43;;;0.43;;
12059;SDS011;6091;51.432;6.880;2023-02-28T00:53:28;0.50;;;0.50;;
12059;SDS011;6091;51.432;6.880;2023-02-28T00:55:56;0.70;;;0.70;;
12059;SDS011;6091;51.432;6.880;2023-02-28T00:58:23;0.52;;;0.52;;
12059;SDS011;6091;51.432;6.880;2023-02-28T01:00:50;0.50;;;0.50;;
12059;SDS011;6091;51.432;6.880;2023-02-28T01:03:19;0.50;;;0.50;;
12059;SDS011;6091;51.432;6.880;2023-02-28T01:05:47;0.55;;;0.55;;
12059;SDS011;6091;51.432;6.880;2023-02-28T01:08:14;0.50;;;0.50;;
12059;SDS011;6091;51.432;6.880;2023-02-28T01:10:41;0.50;;;0.50;;
12059;SDS011;6091;51.432;6.880;2023-02-28T01:13:09;0.57;;;0.50;;
12059;SDS011;6091;51.432;6.880;2023-02-28T01:15:37;0.50;;;0.50;;
12059;SDS011;6091;51.432;6.880;2023-02-28T01:18:09;0.40;;;0.40;;
12059;SDS011;6091;51.432;6.880;2023-02-28T01:20:37;0.40;;;0.40;;
12059;SDS011;6091;51.432;6.880;2023-02-28T01:23:04;0.40;;;0.40;;
12059;SDS011;6091;51.432;6.880;2023-02-28T01:25:33;0.73;;;0.73;;
12059;SDS011;6091;51.432;6.880;2023-02-28T01:28:01;0.80;;;0.60;;
12059;SDS011;6091;51.432;6.880;2023-02-28T01:30:29;0.52;;;0.50;;
12059;SDS011;6091;51.432;6.880;2023-02-28T01:32:56;0.50;;;0.50;;
12059;SDS011;6091;51.432;6.880;2023-02-28T01:35:24;0.43;;;0.43;;
12059;SDS011;6091;51.432;6.880;2023-02-28T01:37:51;0.50;;;0.50;;
12059;SDS011;6091;51.432;6.880;2023-02-28T01:40:19;0.50;;;0.50;;
12059;SDS011;6091;51.432;6.880;2023-02-28T01:42:46;0.47;;;0.47;;
12059;SDS011;6091;51.432;6.880;2023-02-28T01:45:19;1.45;;;0.60;;
12059;SDS011;6091;51.432;6.880;2023-02-28T01:47:52;0.60;;;0.60;;
12059;SDS011;6091;51.432;6.880;2023-02-28T01:50:36;0.50;;;0.50;;
12059;SDS011;6091;51.432;6.880;2023-02-28T01:53:17;0.50;;;0.50;;
12059;SDS011;6091;51.432;6.880;2023-02-28T01:55:51;0.50;;;0.50;;
12059;SDS011;6091;51.432;6.880;2023-02-28T01:58:20;0.40;;;0.40;;
12059;SDS011;6091;51.432;6.880;2023-02-28T02:00:47;0.40;;;0.40;;
12059;SDS011;6091;51.432;6.880;2023-02-28T02:03:16;0.50;;;0.50;;
12059;SDS011;6091;51.432;6.880;2023-02-28T02:05:46;0.50;;;0.50;;
12059;SDS011;6091;51.432;6.880;2023-02-28T02:08:21;0.50;;;0.50;;
12059;SDS011;6091;51.432;6.880;2023-02-28T02:10:54;0.43;;;0.43;;
12059;SDS011;6091;51.432;6.880;2023-02-28T02:19:19;0.40;;;0.40;;
12059;SDS011;6091;51.432;6.880;2023-02-28T02:25:19;0.40;;;0.40;;
12059;SDS011;6091;51.432;6.880;2023-02-28T02:40:00;0.40;;;0.40;;
12059;SDS011;6091;51.432;6.880;2023-02-28T02:42:51;0.43;;;0.43;;
12059;SDS011;6091;51.432;6.880;2023-02-28T02:45:38;0.47;;;0.47;;
12059;SDS011;6091;51.432;6.880;2023-02-28T02:48:15;0.50;;;0.50;;
12059;SDS011;6091;51.432;6.880;2023-02-28T02:50:50;0.50;;;0.50;;
12059;SDS011;6091;51.432;6.880;2023-02-28T02:53:25;0.47;;;0.47;;
12059;SDS011;6091;51.432;6.880;2023-02-28T02:56:18;0.50;;;0.50;;
12059;SDS011;6091;51.432;6.880;2023-02-28T02:58:50;0.40;;;0.40;;
12059;SDS011;6091;51.432;6.880;2023-02-28T03:01:24;0.40;;;0.40;;
12059;SDS011;6091;51.432;6.880;2023-02-28T03:03:56;0.50;;;0.50;;
12059;SDS011;6091;51.432;6.880;2023-02-28T03:06:27;0.50;;;0.40;;
12059;SDS011;6091;51.432;6.880;2023-02-28T03:08:54;0.50;;;0.50;;
12059;SDS011;6091;51.432;6.880;2023-02-28T03:11:22;0.40;;;0.40;;
12059;SDS011;6091;51.432;6.880;2023-02-28T03:14:01;0.30;;;0.30;;
12059;SDS011;6091;51.432;6.880;2023-02-28T03:20:17;0.50;;;0.50;;
12059;SDS011;6091;51.432;6.880;2023-02-28T03:23:29;0.68;;;0.50;;
12059;SDS011;6091;51.432;6.880;2023-02-28T03:26:14;0.40;;;0.40;;
12059;SDS011;6091;51.432;6.880;2023-02-28T03:31:54;0.40;;;0.40;;
12059;SDS011;6091;51.432;6.880;2023-02-28T03:34:33;0.40;;;0.40;;
12059;SDS011;6091;51.432;6.880;2023-02-28T03:37:07;0.40;;;0.40;;
12059;SDS011;6091;51.432;6.880;2023-02-28T03:39:46;0.40;;;0.40;;
12059;SDS011;6091;51.432;6.880;2023-02-28T03:42:27;0.40;;;0.40;;
12059;SDS011;6091;51.432;6.880;2023-02-28T03:45:01;0.50;;;0.50;;
12059;SDS011;6091;51.432;6.880;2023-02-28T03:47:37;0.30;;;0.30;;
12059;SDS011;6091;51.432;6.880;2023-02-28T03:55:58;0.40;;;0.40;;
12059;SDS011;6091;51.432;6.880;2023-02-28T04:01:24;0.40;;;0.40;;
12059;SDS011;6091;51.432;6.880;2023-02-28T04:04:08;0.40;;;0.40;;
12059;SDS011;6091;51.432;6.880;2023-02-28T04:06:37;1.23;;;0.40;;
12059;SDS011;6091;51.432;6.880;2023-02-28T04:09:06;0.50;;;0.50;;
12059;SDS011;6091;51.432;6.880;2023-02-28T04:14:10;0.43;;;0.43;;
12059;SDS011;6091;51.432;6.880;2023-02-28T04:16:39;0.32;;;0.32;;
12059;SDS011;6091;51.432;6.880;2023-02-28T04:19:08;0.32;;;0.32;;
12059;SDS011;6091;51.432;6.880;2023-02-28T04:21:39;0.40;;;0.40;;
12059;SDS011;6091;51.432;6.880;2023-02-28T04:24:21;0.40;;;0.40;;
12059;SDS011;6091;51.432;6.880;2023-02-28T04:26:52;0.32;;;0.32;;
12059;SDS011;6091;51.432;6.880;2023-02-28T04:29:30;0.40;;;0.40;;
12059;SDS011;6091;51.432;6.880;2023-02-28T04:32:01;0.40;;;0.40;;
12059;SDS011;6091;51.432;6.880;2023-02-28T04:34:30;0.70;;;0.40;;
12059;SDS011;6091;51.432;6.880;2023-02-28T04:36:59;0.40;;;0.40;;
12059;SDS011;6091;51.432;6.880;2023-02-28T04:39:42;0.40;;;0.40;;
12059;SDS011;6091;51.432;6.880;2023-02-28T04:42:10;0.35;;;0.35;;
12059;SDS011;6091;51.432;6.880;2023-02-28T04:44:37;0.40;;;0.40;;
12059;SDS011;6091;51.432;6.880;2023-02-28T04:47:05;0.50;;;0.50;;
12059;SDS011;6091;51.432;6.880;2023-02-28T04:49:32;0.40;;;0.40;;
12059;SDS011;6091;51.432;6.880;2023-02-28T04:51:59;0.30;;;0.30;;
12059;SDS011;6091;51.432;6.880;2023-02-28T04:54:26;0.40;;;0.40;;
12059;SDS011;6091;51.432;6.880;2023-02-28T04:56:54;0.30;;;0.30;;
12059;SDS011;6091;51.432;6.880;2023-02-28T04:59:21;0.30;;;0.30;;
12059;SDS011;6091;51.432;6.880;2023-02-28T05:01:48;0.40;;;0.40;;
12059;SDS011;6091;51.432;6.880;2023-02-28T05:04:16;0.40;;;0.40;;
12059;SDS011;6091;51.432;6.880;2023-02-28T05:06:43;0.40;;;0.40;;
12059;SDS011;6091;51.432;6.880;2023-02-28T05:09:10;0.40;;;0.40;;
12059;SDS011;6091;51.432;6.880;2023-02-28T05:11:38;0.32;;;0.32;;
12059;SDS011;6091;51.432;6.880;2023-02-28T05:14:07;0.50;;;0.50;;
12059;SDS011;6091;51.432;6.880;2023-02-28T05:16:40;0.43;;;0.43;;
12059;SDS011;6091;51.432;6.880;2023-02-28T05:19:07;0.40;;;0.40;;
12059;SDS011;6091;51.432;6.880;2023-02-28T05:21:35;0.30;;;0.30;;
12059;SDS011;6091;51.432;6.880;2023-02-28T05:24:14;0.30;;;0.30;;
12059;SDS011;6091;51.432;6.880;2023-02-28T05:26:42;0.40;;;0.40;;
12059;SDS011;6091;51.432;6.880;2023-02-28T05:29:09;0.40;;;0.40;;
12059;SDS011;6091;51.432;6.880;2023-02-28T05:31:37;0.40;;;0.40;;
12059;SDS011;6091;51.432;6.880;2023-02-28T05:34:04;0.40;;;0.40;;
12059;SDS011;6091;51.432;6.880;2023-02-28T05:36:31;0.40;;;0.40;;
12059;SDS011;6091;51.432;6.880;2023-02-28T05:38:58;0.50;;;0.50;;
12059;SDS011;6091;51.432;6.880;2023-02-28T05:41:25;0.43;;;0.43;;
12059;SDS011;6091;51.432;6.880;2023-02-28T05:43:53;0.40;;;0.40;;
12059;SDS011;6091;51.432;6.880;2023-02-28T05:46:21;0.30;;;0.30;;
12059;SDS011;6091;51.432;6.880;2023-02-28T05:48:48;0.40;;;0.40;;
12059;SDS011;6091;51.432;6.880;2023-02-28T05:51:15;0.40;;;0.40;;
12059;SDS011;6091;51.432;6.880;2023-02-28T05:53:43;0.50;;;0.50;;
12059;SDS011;6091;51.432;6.880;2023-02-28T05:56:10;0.45;;;0.45;;
12059;SDS011;6091;51.432;6.880;2023-02-28T05:58:38;0.40;;;0.40;;
12059;SDS011;6091;51.432;6.880;2023-02-28T06:03:57;0.47;;;0.47;;
12059;SDS011;6091;51.432;6.880;2023-02-28T06:06:26;0.40;;;0.40;;
12059;SDS011;6091;51.432;6.880;2023-02-28T06:08:55;0.50;;;0.50;;
12059;SDS011;6091;51.432;6.880;2023-02-28T06:11:23;0.40;;;0.40;;
12059;SDS011;6091;51.432;6.880;2023-02-28T06:13:54;0.40;;;0.40;;
12059;SDS011;6091;51.432;6.880;2023-02-28T06:16:27;0.50;;;0.50;;
12059;SDS011;6091;51.432;6.880;2023-02-28T06:19:00;0.40;;;0.40;;
12059;SDS011;6091;51.432;6.880;2023-02-28T06:21:30;0.45;;;0.45;;
12059;SDS011;6091;51.432;6.880;2023-02-28T06:23:58;0.40;;;0.40;;
12059;SDS011;6091;51.432;6.880;2023-02-28T06:26:25;0.38;;;0.38;;
12059;SDS011;6091;51.432;6.880;2023-02-28T06:28:53;0.40;;;0.40;;
12059;SDS011;6091;51.432;6.880;2023-02-28T06:31:21;0.38;;;0.38;;
12059;SDS011;6091;51.432;6.880;2023-02-28T06:33:49;0.30;;;0.30;;
12059;SDS011;6091;51.432;6.880;2023-02-28T06:36:16;0.40;;;0.40;;
12059;SDS011;6091;51.432;6.880;2023-02-28T06:38:44;0.40;;;0.40;;
12059;SDS011;6091;51.432;6.880;2023-02-28T06:41:12;0.45;;;0.45;;
12059;SDS011;6091;51.432;6.880;2023-02-28T06:43:40;0.30;;;0.30;;
12059;SDS011;6091;51.432;6.880;2023-02-28T06:46:08;0.30;;;0.30;;
12059;SDS011;6091;51.432;6.880;2023-02-28T06:48:40;0.40;;;0.40;;
12059;SDS011;6091;51.432;6.880;2023-02-28T06:51:15;0.38;;;0.38;;
12059;SDS011;6091;51.432;6.880;2023-02-28T06:53:46;0.75;;;0.50;;
12059;SDS011;6091;51.432;6.880;2023-02-28T06:56:14;0.30;;;0.30;;
12059;SDS011;6091;51.432;6.880;2023-02-28T06:58:45;0.40;;;0.40;;
12059;SDS011;6091;51.432;6.880;2023-02-28T07:01:15;0.30;;;0.30;;
12059;SDS011;6091;51.432;6.880;2023-02-28T07:03:43;0.40;;;0.40;;
12059;SDS011;6091;51.432;6.880;2023-02-28T07:06:10;0.50;;;0.50;;
12059;SDS011;6091;51.432;6.880;2023-02-28T07:08:38;0.45;;;0.40;;
12059;SDS011;6091;51.432;6.880;2023-02-28T07:11:07;1.88;;;0.80;;
12059;SDS011;6091;51.432;6.880;2023-02-28T07:13:34;2.55;;;1.20;;
12059;SDS011;6091;51.432;6.880;2023-02-28T07:16:03;6.50;;;3.17;;
12059;SDS011;6091;51.432;6.880;2023-02-28T07:18:34;3.40;;;2.17;;
12059;SDS011;6091;51.432;6.880;2023-02-28T07:21:03;2.55;;;1.92;;
12059;SDS011;6091;51.432;6.880;2023-02-28T07:23:35;2.53;;;1.80;;
12059;SDS011;6091;51.432;6.880;2023-02-28T07:26:07;1.92;;;1.55;;
12059;SDS011;6091;51.432;6.880;2023-02-28T07:28:41;2.78;;;1.38;;
12059;SDS011;6091;51.432;6.880;2023-02-28T07:31:10;2.90;;;1.33;;
12059;SDS011;6091;51.432;6.880;2023-02-28T07:33:40;1.10;;;1.00;;
12059;SDS011;6091;51.432;6.880;2023-02-28T07:36:09;0.93;;;0.80;;
12059;SDS011;6091;51.432;6.880;2023-02-28T07:38:42;2.28;;;1.10;;
12059;SDS011;6091;51.432;6.880;2023-02-28T07:41:14;1.00;;;0.90;;
12059;SDS011;6091;51.432;6.880;2023-02-28T07:43:44;0.70;;;0.70;;
12059;SDS011;6091;51.432;6.880;2023-02-28T07:46:12;1.17;;;0.90;;
12059;SDS011;6091;51.432;6.880;2023-02-28T07:48:42;1.08;;;0.80;;
12059;SDS011;6091;51.432;6.880;2023-02-28T07:51:10;1.45;;;0.93;;
12059;SDS011;6091;51.432;6.880;2023-02-28T07:53:37;1.02;;;0.75;;
12059;SDS011;6091;51.432;6.880;2023-02-28T07:56:04;0.85;;;0.70;;
12059;SDS011;6091;51.432;6.880;2023-02-28T07:58:32;2.17;;;0.93;;
12059;SDS011;6091;51.432;6.880;2023-02-28T08:01:09;1.13;;;0.90;;
12059;SDS011;6091;51.432;6.880;2023-02-28T08:03:37;0.75;;;0.73;;
12059;SDS011;6091;51.432;6.880;2023-02-28T08:06:07;0.68;;;0.68;;
12059;SDS011;6091;51.432;6.880;2023-02-28T08:08:45;1.90;;;0.75;;
12059;SDS011;6091;51.432;6.880;2023-02-28T08:11:13;1.02;;;0.63;;
12059;SDS011;6091;51.432;6.880;2023-02-28T08:13:42;1.60;;;0.70;;
12059;SDS011;6091;51.432;6.880;2023-02-28T08:16:11;2.22;;;0.88;;
12059;SDS011;6091;51.432;6.880;2023-02-28T08:18:48;3.30;;;0.90;;
12059;SDS011;6091;51.432;6.880;2023-02-28T08:21:19;2.03;;;0.75;;
12059;SDS011;6091;51.432;6.880;2023-02-28T08:23:48;3.75;;;1.02;;
12059;SDS011;6091;51.432;6.880;2023-02-28T08:26:17;2.05;;;0.70;;
12059;SDS011;6091;51.432;6.880;2023-02-28T08:28:45;4.45;;;1.10;;
12059;SDS011;6091;51.432;6.880;2023-02-28T08:31:13;1.70;;;0.80;;
12059;SDS011;6091;51.432;6.880;2023-02-28T08:33:42;3.13;;;0.80;;
12059;SDS011;6091;51.432;6.880;2023-02-28T08:36:11;3.20;;;0.80;;
12059;SDS011;6091;51.432;6.880;2023-02-28T08:38:38;1.45;;;1.05;;
12059;SDS011;6091;51.432;6.880;2023-02-28T08:41:07;1.30;;;0.70;;
12059;SDS011;6091;51.432;6.880;2023-02-28T08:43:37;3.70;;;0.90;;
12059;SDS011;6091;51.432;6.880;2023-02-28T08:46:06;2.40;;;0.85;;
12059;SDS011;6091;51.432;6.880;2023-02-28T08:48:34;4.22;;;0.90;;
12059;SDS011;6091;51.432;6.880;2023-02-28T08:51:05;2.67;;;0.90;;
12059;SDS011;6091;51.432;6.880;2023-02-28T08:53:36;1.52;;;0.93;;
12059;SDS011;6091;51.432;6.880;2023-02-28T08:56:13;2.05;;;0.88;;
12059;SDS011;6091;51.432;6.880;2023-02-28T08:58:45;2.58;;;0.70;;
12059;SDS011;6091;51.432;6.880;2023-02-28T09:01:16;4.18;;;1.48;;
12059;SDS011;6091;51.432;6.880;2023-02-28T09:03:50;2.60;;;1.00;;
12059;SDS011;6091;51.432;6.880;2023-02-28T09:06:18;4.22;;;1.00;;
12059;SDS011;6091;51.432;6.880;2023-02-28T09:08:48;1.90;;;1.20;;
12059;SDS011;6091;51.432;6.880;2023-02-28T09:11:16;1.25;;;0.90;;
12059;SDS011;6091;51.432;6.880;2023-02-28T09:13:44;3.55;;;1.02;;
12059;SDS011;6091;51.432;6.880;2023-02-28T09:16:13;2.63;;;1.17;;
12059;SDS011;6091;51.432;6.880;2023-02-28T09:18:43;4.47;;;1.52;;
12059;SDS011;6091;51.432;6.880;2023-02-28T09:21:11;3.80;;;1.27;;
12059;SDS011;6091;51.432;6.880;2023-02-28T09:23:45;4.20;;;1.60;;
12059;SDS011;6091;51.432;6.880;2023-02-28T09:26:22;5.35;;;1.40;;
12059;SDS011;6091;51.432;6.880;2023-02-28T09:28:54;4.67;;;1.90;;
12059;SDS011;6091;51.432;6.880;2023-02-28T09:31:23;4.60;;;1.73;;
12059;SDS011;6091;51.432;6.880;2023-02-28T09:33:55;3.00;;;1.50;;
12059;SDS011;6091;51.432;6.880;2023-02-28T09:36:23;4.30;;;1.30;;
12059;SDS011;6091;51.432;6.880;2023-02-28T09:39:09;3.80;;;1.52;;
12059;SDS011;6091;51.432;6.880;2023-02-28T09:41:37;4.78;;;1.52;;
12059;SDS011;6091;51.432;6.880;2023-02-28T09:44:16;3.42;;;1.50;;
12059;SDS011;6091;51.432;6.880;2023-02-28T09:47:25;3.58;;;1.25;;
12059;SDS011;6091;51.432;6.880;2023-02-28T09:50:08;2.15;;;1.25;;
12059;SDS011;6091;51.432;6.880;2023-02-28T09:52:56;3.10;;;1.38;;
12059;SDS011;6091;51.432;6.880;2023-02-28T09:55:32;3.83;;;1.60;;
12059;SDS011;6091;51.432;6.880;2023-02-28T10:04:16;2.55;;;1.15;;
12059;SDS011;6091;51.432;6.880;2023-02-28T10:10:20;3.40;;;1.27;;
12059;SDS011;6091;51.432;6.880;2023-02-28T10:13:28;2.83;;;1.23;;
12059;SDS011;6091;51.432;6.880;2023-02-28T10:16:12;1.73;;;1.10;;
12059;SDS011;6091;51.432;6.880;2023-02-28T10:18:51;3.17;;;1.15;;
12059;SDS011;6091;51.432;6.880;2023-02-28T10:21:30;2.08;;;1.05;;
12059;SDS011;6091;51.432;6.880;2023-02-28T10:24:11;1.50;;;0.90;;
12059;SDS011;6091;51.432;6.880;2023-02-28T10:27:26;1.70;;;0.95;;
12059;SDS011;6091;51.432;6.880;2023-02-28T10:29:59;3.97;;;1.38;;
12059;SDS011;6091;51.432;6.880;2023-02-28T10:32:32;3.35;;;1.00;;
12059;SDS011;6091;51.432;6.880;2023-02-28T10:37:41;2.50;;;1.10;;
12059;SDS011;6091;51.432;6.880;2023-02-28T10:43:03;4.80;;;1.40;;
12059;SDS011;6091;51.432;6.880;2023-02-28T10:45:55;1.60;;;1.00;;
12059;SDS011;6091;51.432;6.880;2023-02-28T10:48:37;2.10;;;1.23;;
12059;SDS011;6091;51.432;6.880;2023-02-28T10:51:10;1.38;;;0.98;;
12059;SDS011;6091;51.432;6.880;2023-02-28T10:56:26;2.53;;;1.33;;
12059;SDS011;6091;51.432;6.880;2023-02-28T10:59:22;2.75;;;0.90;;
12059;SDS011;6091;51.432;6.880;2023-02-28T11:01:42;3.30;;;1.10;;
12059;SDS011;6091;51.432;6.880;2023-02-28T11:04:20;3.45;;;1.23;;
12059;SDS011;6091;51.432;6.880;2023-02-28T11:06:59;0.98;;;0.80;;
12059;SDS011;6091;51.432;6.880;2023-02-28T11:09:48;2.25;;;1.00;;
12059;SDS011;6091;51.432;6.880;2023-02-28T11:12:23;1.55;;;0.80;;
12059;SDS011;6091;51.432;6.880;2023-02-28T11:15:07;1.05;;;0.63;;
12059;SDS011;6091;51.432;6.880;2023-02-28T11:20:30;1.10;;;0.60;;
12059;SDS011;6091;51.432;6.880;2023-02-28T11:23:01;1.40;;;0.80;;
12059;SDS011;6091;51.432;6.880;2023-02-28T11:25:32;0.93;;;0.80;;
12059;SDS011;6091;51.432;6.880;2023-02-28T11:28:06;2.53;;;0.70;;
12059;SDS011;6091;51.432;6.880;2023-02-28T11:33:49;1.40;;;0.80;;
12059;SDS011;6091;51.432;6.880;2023-02-28T11:36:21;1.25;;;0.82;;
12059;SDS011;6091;51.432;6.880;2023-02-28T11:39:03;3.97;;;1.05;;
12059;SDS011;6091;51.432;6.880;2023-02-28T11:41:50;2.33;;;1.10;;
12059;SDS011;6091;51.432;6.880;2023-02-28T11:48:07;2.72;;;1.10;;
12059;SDS011;6091;51.432;6.880;2023-02-28T11:54:06;1.45;;;0.90;;
12059;SDS011;6091;51.432;6.880;2023-02-28T11:57:00;1.63;;;0.95;;
12059;SDS011;6091;51.432;6.880;2023-02-28T12:06:28;1.13;;;0.85;;
12059;SDS011;6091;51.432;6.880;2023-02-28T12:24:47;2.00;;;0.70;;
12059;SDS011;6091;51.432;6.880;2023-02-28T12:27:42;2.45;;;1.10;;
12059;SDS011;6091;51.432;6.880;2023-02-28T12:30:16;1.38;;;0.82;;
12059;SDS011;6091;51.432;6.880;2023-02-28T12:33:04;3.22;;;0.88;;
12059;SDS011;6091;51.432;6.880;2023-02-28T12:35:48;3.70;;;0.70;;
12059;SDS011;6091;51.432;6.880;2023-02-28T12:38:23;1.48;;;0.80;;
12059;SDS011;6091;51.432;6.880;2023-02-28T12:41:05;2.20;;;0.98;;
12059;SDS011;6091;51.432;6.880;2023-02-28T12:44:15;6.18;;;0.98;;
12059;SDS011;6091;51.432;6.880;2023-02-28T12:46:59;2.83;;;0.90;;
12059;SDS011;6091;51.432;6.880;2023-02-28T12:49:41;3.05;;;0.80;;
12059;SDS011;6091;51.432;6.880;2023-02-28T12:52:19;2.38;;;1.02;;
12059;SDS011;6091;51.432;6.880;2023-02-28T12:54:59;3.28;;;0.95;;
12059;SDS011;6091;51.432;6.880;2023-02-28T12:57:42;4.78;;;1.15;;
12059;SDS011;6091;51.432;6.880;2023-02-28T13:00:16;4.53;;;0.93;;
12059;SDS011;6091;51.432;6.880;2023-02-28T13:05:58;2.92;;;0.70;;
12059;SDS011;6091;51.432;6.880;2023-02-28T13:09:13;1.70;;;0.70;;
12059;SDS011;6091;51.432;6.880;2023-02-28T13:11:46;1.17;;;0.73;;
12059;SDS011;6091;51.432;6.880;2023-02-28T13:14:37;1.13;;;0.80;;
12059;SDS011;6091;51.432;6.880;2023-02-28T13:19:39;0.88;;;0.63;;
12059;SDS011;6091;51.432;6.880;2023-02-28T13:28:00;1.33;;;0.77;;
12059;SDS011;6091;51.432;6.880;2023-02-28T13:38:47;0.70;;;0.52;;
12059;SDS011;6091;51.432;6.880;2023-02-28T14:00:44;2.33;;;0.60;;
12059;SDS011;6091;51.432;6.880;2023-02-28T14:06:58;1.17;;;0.50;;
12059;SDS011;6091;51.432;6.880;2023-02-28T14:09:31;0.55;;;0.55;;
12059;SDS011;6091;51.432;6.880;2023-02-28T14:17:55;0.68;;;0.60;;
12059;SDS011;6091;51.432;6.880;2023-02-28T14:20:24;0.50;;;0.50;;
12059;SDS011;6091;51.432;6.880;2023-02-28T14:29:07;0.50;;;0.50;;
12059;SDS011;6091;51.432;6.880;2023-02-28T14:32:02;0.60;;;0.50;;
12059;SDS011;6091;51.432;6.880;2023-02-28T14:37:43;2.53;;;1.08;;
12059;SDS011;6091;51.432;6.880;2023-02-28T14:40:22;2.42;;;0.80;;
12059;SDS011;6091;51.432;6.880;2023-02-28T14:43:05;2.45;;;0.50;;
12059;SDS011;6091;51.432;6.880;2023-02-28T14:45:48;1.20;;;0.60;;
12059;SDS011;6091;51.432;6.880;2023-02-28T14:48:25;1.35;;;0.65;;
12059;SDS011;6091;51.432;6.880;2023-02-28T14:50:57;3.08;;;0.88;;
12059;SDS011;6091;51.432;6.880;2023-02-28T14:53:30;1.45;;;0.70;;
12059;SDS011;6091;51.432;6.880;2023-02-28T14:56:03;6.32;;;0.68;;
12059;SDS011;6091;51.432;6.880;2023-02-28T14:58:32;3.17;;;0.82;;
12059;SDS011;6091;51.432;6.880;2023-02-28T15:01:01;3.35;;;0.80;;
12059;SDS011;6091;51.432;6.880;2023-02-28T15:06:16;1.13;;;0.80;;
12059;SDS011;6091;51.432;6.880;2023-02-28T15:08:44;1.75;;;0.77;;
12059;SDS011;6091;51.432;6.880;2023-02-28T15:11:16;3.33;;;0.80;;
12059;SDS011;6091;51.432;6.880;2023-02-28T15:13:50;5.50;;;0.90;;
12059;SDS011;6091;51.432;6.880;2023-02-28T15:16:22;2.60;;;0.70;;
12059;SDS011;6091;51.432;6.880;2023-02-28T15:19:44;2.47;;;0.70;;
12059;SDS011;6091;51.432;6.880;2023-02-28T15:22:04;1.35;;;0.80;;
12059;SDS011;6091;51.432;6.880;2023-02-28T15:24:42;3.08;;;1.58;;
12059;SDS011;6091;51.432;6.880;2023-02-28T15:27:20;2.92;;;1.73;;
12059;SDS011;6091;51.432;6.880;2023-02-28T15:29:57;6.13;;;2.58;;
12059;SDS011;6091;51.432;6.880;2023-02-28T15:32:34;2.60;;;1.77;;
12059;SDS011;6091;51.432;6.880;2023-02-28T15:40:24;3.35;;;1.20;;
12059;SDS011;6091;51.432;6.880;2023-02-28T15:43:02;2.75;;;1.30;;
12059;SDS011;6091;51.432;6.880;2023-02-28T15:45:46;1.92;;;1.05;;
12059;SDS011;6091;51.432;6.880;2023-02-28T15:48:18;2.60;;;1.17;;
12059;SDS011;6091;51.432;6.880;2023-02-28T15:50:54;2.05;;;1.23;;
12059;SDS011;6091;51.432;6.880;2023-02-28T15:53:31;1.00;;;0.90;;
12059;SDS011;6091;51.432;6.880;2023-02-28T15:56:29;3.15;;;1.00;;
12059;SDS011;6091;51.432;6.880;2023-02-28T15:59:28;1.58;;;0.98;;
12059;SDS011;6091;51.432;6.880;2023-02-28T16:04:36;1.50;;;0.85;;
12059;SDS011;6091;51.432;6.880;2023-02-28T16:07:21;1.60;;;1.10;;
12059;SDS011;6091;51.432;6.880;2023-02-28T16:09:48;1.60;;;1.10;;
12059;SDS011;6091;51.432;6.880;2023-02-28T16:12:15;0.88;;;0.70;;
12059;SDS011;6091;51.432;6.880;2023-02-28T16:14:42;0.77;;;0.77;;
12059;SDS011;6091;51.432;6.880;2023-02-28T16:17:16;1.08;;;0.88;;
12059;SDS011;6091;51.432;6.880;2023-02-28T16:19:49;0.80;;;0.68;;
12059;SDS011;6091;51.432;6.880;2023-02-28T16:22:16;1.85;;;1.27;;
12059;SDS011;6091;51.432;6.880;2023-02-28T16:24:43;0.70;;;0.68;;
12059;SDS011;6091;51.432;6.880;2023-02-28T16:27:32;2.25;;;0.75;;
12059;SDS011;6091;51.432;6.880;2023-02-28T16:30:02;1.70;;;0.82;;
12059;SDS011;6091;51.432;6.880;2023-02-28T16:32:33;0.77;;;0.70;;
12059;SDS011;6091;51.432;6.880;2023-02-28T16:35:02;0.70;;;0.70;;
12059;SDS011;6091;51.432;6.880;2023-02-28T16:37:35;0.73;;;0.70;;
12059;SDS011;6091;51.432;6.880;2023-02-28T16:40:03;0.70;;;0.70;;
12059;SDS011;6091;51.432;6.880;2023-02-28T16:42:31;1.00;;;0.80;;
12059;SDS011;6091;51.432;6.880;2023-02-28T16:44:58;1.15;;;0.80;;
12059;SDS011;6091;51.432;6.880;2023-02-28T16:47:25;0.65;;;0.57;;
12059;SDS011;6091;51.432;6.880;2023-02-28T16:49:52;0.90;;;0.60;;
12059;SDS011;6091;51.432;6.880;2023-02-28T16:52:19;0.75;;;0.75;;
12059;SDS011;6091;51.432;6.880;2023-02-28T16:54:46;0.90;;;0.70;;
12059;SDS011;6091;51.432;6.880;2023-02-28T16:57:19;0.85;;;0.70;;
12059;SDS011;6091;51.432;6.880;2023-02-28T16:59:49;1.30;;;0.95;;
12059;SDS011;6091;51.432;6.880;2023-02-28T17:02:19;0.50;;;0.50;;
12059;SDS011;6091;51.432;6.880;2023-02-28T17:04:47;0.43;;;0.43;;
12059;SDS011;6091;51.432;6.880;2023-02-28T17:07:14;0.60;;;0.60;;
12059;SDS011;6091;51.432;6.880;2023-02-28T17:09:43;0.88;;;0.60;;
12059;SDS011;6091;51.432;6.880;2023-02-28T17:12:12;0.80;;;0.60;;
12059;SDS011;6091;51.432;6.880;2023-02-28T17:14:39;0.52;;;0.43;;
12059;SDS011;6091;51.432;6.880;2023-02-28T17:17:07;1.15;;;1.00;;
12059;SDS011;6091;51.432;6.880;2023-02-28T17:19:41;1.25;;;0.85;;
12059;SDS011;6091;51.432;6.880;2023-02-28T17:22:10;2.08;;;1.20;;
12059;SDS011;6091;51.432;6.880;2023-02-28T17:24:37;3.25;;;1.13;;
12059;SDS011;6091;51.432;6.880;2023-02-28T17:27:04;2.03;;;0.85;;
12059;SDS011;6091;51.432;6.880;2023-02-28T17:29:31;1.92;;;0.80;;
12059;SDS011;6091;51.432;6.880;2023-02-28T17:31:59;0.70;;;0.70;;
12059;SDS011;6091;51.432;6.880;2023-02-28T17:34:41;1.13;;;0.75;;
12059;SDS011;6091;51.432;6.880;2023-02-28T17:37:08;1.25;;;0.80;;
12059;SDS011;6091;51.432;6.880;2023-02-28T17:39:35;0.70;;;0.70;;
12059;SDS011;6091;51.432;6.880;2023-02-28T17:42:02;0.73;;;0.60;;
12059;SDS011;6091;51.432;6.880;2023-02-28T17:44:29;1.13;;;0.70;;
12059;SDS011;6091;51.432;6.880;2023-02-28T17:46:56;1.60;;;1.05;;
12059;SDS011;6091;51.432;6.880;2023-02-28T17:49:25;0.80;;;0.80;;
12059;SDS011;6091;51.432;6.880;2023-02-28T17:51:53;0.70;;;0.70;;
12059;SDS011;6091;51.432;6.880;2023-02-28T17:54:20;0.65;;;0.60;;
12059;SDS011;6091;51.432;6.880;2023-02-28T17:56:47;1.20;;;0.90;;
12059;SDS011;6091;51.432;6.880;2023-02-28T17:59:14;1.58;;;0.88;;
12059;SDS011;6091;51.432;6.880;2023-02-28T18:01:41;1.00;;;0.80;;
12059;SDS011;6091;51.432;6.880;2023-02-28T18:04:08;1.53;;;0.80;;
12059;SDS011;6091;51.432;6.880;2023-02-28T18:06:40;0.70;;;0.60;;
12059;SDS011;6091;51.432;6.880;2023-02-28T18:09:14;1.55;;;0.70;;
12059;SDS011;6091;51.432;6.880;2023-02-28T18:11:50;1.10;;;0.70;;
12059;SDS011;6091;51.432;6.880;2023-02-28T18:14:19;1.15;;;0.68;;
12059;SDS011;6091;51.432;6.880;2023-02-28T18:16:50;1.75;;;0.60;;
12059;SDS011;6091;51.432;6.880;2023-02-28T18:19:19;0.85;;;0.73;;